sensor_id;sensor_type;location;lat;lon;timestamp;pressure;altitude;pressure_sealevel;temperature;humidity
55550;BME280;41397;49.972;18.944;2023-03-31T00:01:05;101128.89;;;13.92;66.30
55550;BME280;41397;49.972;18.944;2023-03-31T00:04:09;101129.17;;;13.89;66.25
55550;BME280;41397;49.972;18.944;2023-03-31T00:07:14;101135.53;;;13.89;66.20
55550;BME280;41397;49.972;18.944;2023-03-31T00:10:16;101135.66;;;13.88;65.94
55550;BME280;41397;49.972;18.944;2023-03-31T00:13:19;101136.09;;;13.83;65.83
55550;BME280;41397;49.972;18.944;2023-03-31T00:16:21;101146.19;;;13.83;65.92
55550;BME280;41397;49.972;18.944;2023-03-31T00:19:22;101138.11;;;13.81;66.16
55550;BME280;41397;49.972;18.944;2023-03-31T00:22:24;101142.98;;;13.77;65.99
55550;BME280;41397;49.972;18.944;2023-03-31T00:25:27;101139.66;;;13.74;66.14
55550;BME280;41397;49.972;18.944;2023-03-31T00:28:28;101143.54;;;13.71;65.97
55550;BME280;41397;49.972;18.944;2023-03-31T00:31:31;101136.45;;;13.69;66.08
55550;BME280;41397;49.972;18.944;2023-03-31T00:34:33;101144.69;;;13.69;66.02
55550;BME280;41397;49.972;18.944;2023-03-31T00:37:34;101141.23;;;13.67;65.79
55550;BME280;41397;49.972;18.944;2023-03-31T00:40:36;101139.63;;;13.64;66.10
55550;BME280;41397;49.972;18.944;2023-03-31T00:50:26;101124.96;;;13.54;65.96
55550;BME280;41397;49.972;18.944;2023-03-31T00:56:56;101127.36;;;13.47;66.14
55550;BME280;41397;49.972;18.944;2023-03-31T01:00:01;101134.90;;;13.45;66.07
55550;BME280;41397;49.972;18.944;2023-03-31T01:03:14;101136.74;;;13.45;66.07
55550;BME280;41397;49.972;18.944;2023-03-31T01:06:17;101131.52;;;13.42;66.07
55550;BME280;41397;49.972;18.944;2023-03-31T01:09:20;101139.91;;;13.40;66.41
55550;BME280;41397;49.972;18.944;2023-03-31T01:12:25;101125.17;;;13.41;66.60
55550;BME280;41397;49.972;18.944;2023-03-31T01:15:27;101132.42;;;13.42;66.71
55550;BME280;41397;49.972;18.944;2023-03-31T01:18:29;101132.55;;;13.41;66.83
55550;BME280;41397;49.972;18.944;2023-03-31T01:44:59;101121.75;;;13.49;67.02
55550;BME280;41397;49.972;18.944;2023-03-31T01:48:10;101127.23;;;13.49;66.87
55550;BME280;41397;49.972;18.944;2023-03-31T01:54:37;101120.02;;;13.48;66.49
55550;BME280;41397;49.972;18.944;2023-03-31T02:00:59;101123.48;;;13.50;66.56
55550;BME280;41397;49.972;18.944;2023-03-31T02:04:10;101118.26;;;13.47;66.30
55550;BME280;41397;49.972;18.944;2023-03-31T02:07:17;101126.21;;;13.50;66.33
55550;BME280;41397;49.972;18.944;2023-03-31T02:10:26;101127.23;;;13.49;66.18
55550;BME280;41397;49.972;18.944;2023-03-31T02:13:31;101117.12;;;13.49;66.10
55550;BME280;41397;49.972;18.944;2023-03-31T02:16:37;101116.38;;;13.47;65.87
55550;BME280;41397;49.972;18.944;2023-03-31T02:19:50;101120.13;;;13.46;65.93
55550;BME280;41397;49.972;18.944;2023-03-31T02:22:55;101115.66;;;13.45;65.94
55550;BME280;41397;49.972;18.944;2023-03-31T02:26:07;101112.63;;;13.48;65.82
55550;BME280;41397;49.972;18.944;2023-03-31T02:29:10;101110.02;;;13.47;66.01
55550;BME280;41397;49.972;18.944;2023-03-31T02:32:23;101116.38;;;13.47;65.76
55550;BME280;41397;49.972;18.944;2023-03-31T02:35:27;101114.37;;;13.49;65.82
55550;BME280;41397;49.972;18.944;2023-03-31T02:38:34;101113.38;;;13.50;65.87
55550;BME280;41397;49.972;18.944;2023-03-31T02:41:37;101100.80;;;13.48;65.71
55550;BME280;41397;49.972;18.944;2023-03-31T02:44:42;101103.78;;;13.45;65.78
55550;BME280;41397;49.972;18.944;2023-03-31T02:47:43;101101.49;;;13.50;65.64
55550;BME280;41397;49.972;18.944;2023-03-31T02:57:24;101097.02;;;13.49;65.74
55550;BME280;41397;49.972;18.944;2023-03-31T03:00:38;101096.16;;;13.48;65.62
55550;BME280;41397;49.972;18.944;2023-03-31T03:04:10;101101.65;;;13.48;65.59
55550;BME280;41397;49.972;18.944;2023-03-31T03:07:02;101102.79;;;13.46;65.58
55550;BME280;41397;49.972;18.944;2023-03-31T03:16:45;101100.43;;;13.41;65.66
55550;BME280;41397;49.972;18.944;2023-03-31T03:19:55;101086.98;;;13.38;65.46
55550;BME280;41397;49.972;18.944;2023-03-31T03:22:56;101084.11;;;13.40;65.49
55550;BME280;41397;49.972;18.944;2023-03-31T03:25:58;101081.61;;;13.37;65.36
55550;BME280;41397;49.972;18.944;2023-03-31T03:28:59;101072.51;;;13.36;65.35
55550;BME280;41397;49.972;18.944;2023-03-31T03:32:01;101076.13;;;13.37;65.31
55550;BME280;41397;49.972;18.944;2023-03-31T03:35:04;101072.51;;;13.36;65.44
55550;BME280;41397;49.972;18.944;2023-03-31T03:38:06;101071.64;;;13.36;65.39
55550;BME280;41397;49.972;18.944;2023-03-31T03:41:08;101077.01;;;13.37;65.46
55550;BME280;41397;49.972;18.944;2023-03-31T03:44:10;101066.73;;;13.39;65.20
55550;BME280;41397;49.972;18.944;2023-03-31T03:47:11;101068.63;;;13.39;65.22
55550;BME280;41397;49.972;18.944;2023-03-31T03:50:13;101065.13;;;13.37;65.09
55550;BME280;41397;49.972;18.944;2023-03-31T03:53:25;101066.30;;;13.34;65.08
55550;BME280;41397;49.972;18.944;2023-03-31T03:56:27;101062.07;;;13.30;65.01
55550;BME280;41397;49.972;18.944;2023-03-31T03:59:28;101054.58;;;13.32;64.78
55550;BME280;41397;49.972;18.944;2023-03-31T04:02:30;101061.95;;;13.31;65.02
55550;BME280;41397;49.972;18.944;2023-03-31T04:05:31;101061.95;;;13.31;64.81
55550;BME280;41397;49.972;18.944;2023-03-31T04:08:34;101050.34;;;13.28;64.79
55550;BME280;41397;49.972;18.944;2023-03-31T04:11:36;101045.88;;;13.27;64.92
55550;BME280;41397;49.972;18.944;2023-03-31T04:14:38;101045.01;;;13.26;64.79
55550;BME280;41397;49.972;18.944;2023-03-31T04:17:39;101042.63;;;13.22;64.52
55550;BME280;41397;49.972;18.944;2023-03-31T04:20:43;101053.89;;;13.19;65.01
55550;BME280;41397;49.972;18.944;2023-03-31T04:23:45;101047.38;;;13.20;65.24
55550;BME280;41397;49.972;18.944;2023-03-31T04:26:46;101041.02;;;13.19;65.38
55550;BME280;41397;49.972;18.944;2023-03-31T04:29:50;101043.04;;;13.17;65.38
55550;BME280;41397;49.972;18.944;2023-03-31T04:32:57;101040.27;;;13.17;65.33
55550;BME280;41397;49.972;18.944;2023-03-31T04:35:59;101049.26;;;13.19;65.28
55550;BME280;41397;49.972;18.944;2023-03-31T04:39:06;101045.38;;;13.22;65.27
55550;BME280;41397;49.972;18.944;2023-03-31T04:42:11;101042.34;;;13.25;65.13
55550;BME280;41397;49.972;18.944;2023-03-31T04:45:12;101038.16;;;13.21;65.37
55550;BME280;41397;49.972;18.944;2023-03-31T04:48:16;101040.91;;;13.21;65.14
55550;BME280;41397;49.972;18.944;2023-03-31T04:51:35;101035.53;;;13.19;65.06
55550;BME280;41397;49.972;18.944;2023-03-31T04:54:36;101020.78;;;13.20;64.87
55550;BME280;41397;49.972;18.944;2023-03-31T04:57:38;101023.69;;;13.19;65.19
55550;BME280;41397;49.972;18.944;2023-03-31T05:04:13;101013.16;;;13.24;64.92
55550;BME280;41397;49.972;18.944;2023-03-31T05:07:24;101012.91;;;13.27;64.87
55550;BME280;41397;49.972;18.944;2023-03-31T05:10:27;101007.44;;;13.37;64.91
55550;BME280;41397;49.972;18.944;2023-03-31T05:13:31;101006.44;;;13.78;65.50
55550;BME280;41397;49.972;18.944;2023-03-31T05:27:09;100993.31;;;16.09;59.19
55550;BME280;41397;49.972;18.944;2023-03-31T05:30:22;100990.55;;;16.09;58.88
55550;BME280;41397;49.972;18.944;2023-03-31T05:33:27;100984.55;;;15.95;57.99
55550;BME280;41397;49.972;18.944;2023-03-31T05:36:28;100978.53;;;15.82;57.93
55550;BME280;41397;49.972;18.944;2023-03-31T05:39:30;100986.16;;;15.70;58.08
55550;BME280;41397;49.972;18.944;2023-03-31T05:42:33;100978.84;;;15.51;57.95
55550;BME280;41397;49.972;18.944;2023-03-31T05:45:34;100982.35;;;15.44;58.46
55550;BME280;41397;49.972;18.944;2023-03-31T05:48:36;100972.55;;;15.69;58.67
55550;BME280;41397;49.972;18.944;2023-03-31T05:51:38;100977.62;;;16.09;58.61
55550;BME280;41397;49.972;18.944;2023-03-31T05:54:46;100970.44;;;16.52;57.58
55550;BME280;41397;49.972;18.944;2023-03-31T05:57:50;100970.77;;;16.93;57.16
55550;BME280;41397;49.972;18.944;2023-03-31T06:04:09;100982.05;;;17.68;54.82
55550;BME280;41397;49.972;18.944;2023-03-31T06:07:11;100972.48;;;17.97;54.81
55550;BME280;41397;49.972;18.944;2023-03-31T06:10:14;100964.91;;;18.24;53.08
55550;BME280;41397;49.972;18.944;2023-03-31T06:13:16;100973.93;;;18.42;52.10
55550;BME280;41397;49.972;18.944;2023-03-31T06:16:17;100974.29;;;18.63;52.26
55550;BME280;41397;49.972;18.944;2023-03-31T06:19:19;100976.16;;;18.71;51.70
55550;BME280;41397;49.972;18.944;2023-03-31T06:22:21;100968.41;;;18.83;51.28
55550;BME280;41397;49.972;18.944;2023-03-31T06:25:22;100965.08;;;18.96;50.93
55550;BME280;41397;49.972;18.944;2023-03-31T06:31:49;100966.93;;;19.20;49.77
55550;BME280;41397;49.972;18.944;2023-03-31T06:34:54;100959.45;;;19.28;49.03
55550;BME280;41397;49.972;18.944;2023-03-31T06:37:56;100962.04;;;19.38;49.08
55550;BME280;41397;49.972;18.944;2023-03-31T06:40:58;100960.45;;;19.44;49.84
55550;BME280;41397;49.972;18.944;2023-03-31T06:43:59;100958.70;;;19.51;49.56
55550;BME280;41397;49.972;18.944;2023-03-31T06:47:02;100963.19;;;19.52;49.72
55550;BME280;41397;49.972;18.944;2023-03-31T06:50:04;100962.82;;;19.55;49.26
55550;BME280;41397;49.972;18.944;2023-03-31T06:53:09;100961.44;;;19.59;49.57
55550;BME280;41397;49.972;18.944;2023-03-31T06:56:11;100955.15;;;19.65;49.59
55550;BME280;41397;49.972;18.944;2023-03-31T06:59:13;100945.63;;;19.68;48.69
55550;BME280;41397;49.972;18.944;2023-03-31T07:02:14;100951.16;;;19.76;48.70
55550;BME280;41397;49.972;18.944;2023-03-31T07:05:17;100957.51;;;19.85;48.45
55550;BME280;41397;49.972;18.944;2023-03-31T07:08:22;100947.91;;;19.95;48.79
55550;BME280;41397;49.972;18.944;2023-03-31T07:11:28;100945.51;;;19.92;48.43
55550;BME280;41397;49.972;18.944;2023-03-31T07:14:29;100950.85;;;19.94;48.05
55550;BME280;41397;49.972;18.944;2023-03-31T07:17:31;100943.59;;;19.93;47.89
55550;BME280;41397;49.972;18.944;2023-03-31T07:20:33;100945.45;;;20.01;49.09
55550;BME280;41397;49.972;18.944;2023-03-31T07:23:35;100953.52;;;20.10;48.43
55550;BME280;41397;49.972;18.944;2023-03-31T07:26:37;100949.52;;;20.13;47.70
55550;BME280;41397;49.972;18.944;2023-03-31T07:29:39;100939.73;;;20.25;47.80
55550;BME280;41397;49.972;18.944;2023-03-31T07:32:40;100937.27;;;20.30;47.81
55550;BME280;41397;49.972;18.944;2023-03-31T07:35:42;100933.24;;;20.33;47.08
55550;BME280;41397;49.972;18.944;2023-03-31T07:38:45;100923.44;;;20.22;47.08
55550;BME280;41397;49.972;18.944;2023-03-31T07:41:49;100923.60;;;20.21;47.92
55550;BME280;41397;49.972;18.944;2023-03-31T07:44:50;100919.91;;;20.28;47.40
55550;BME280;41397;49.972;18.944;2023-03-31T07:47:52;100918.84;;;20.29;47.25
55550;BME280;41397;49.972;18.944;2023-03-31T07:50:54;100917.30;;;20.27;47.88
55550;BME280;41397;49.972;18.944;2023-03-31T07:53:55;100913.87;;;20.25;47.51
55550;BME280;41397;49.972;18.944;2023-03-31T07:56:57;100908.55;;;20.15;47.31
55550;BME280;41397;49.972;18.944;2023-03-31T08:00:05;100908.62;;;20.07;47.45
55550;BME280;41397;49.972;18.944;2023-03-31T08:03:11;100895.22;;;20.10;47.84
55550;BME280;41397;49.972;18.944;2023-03-31T08:06:18;100894.43;;;20.02;47.06
55550;BME280;41397;49.972;18.944;2023-03-31T08:09:20;100900.66;;;20.04;47.58
55550;BME280;41397;49.972;18.944;2023-03-31T08:12:23;100900.18;;;20.00;47.18
55550;BME280;41397;49.972;18.944;2023-03-31T08:15:25;100888.70;;;20.03;47.60
55550;BME280;41397;49.972;18.944;2023-03-31T08:18:26;100879.14;;;20.06;47.81
55550;BME280;41397;49.972;18.944;2023-03-31T08:21:28;100876.60;;;19.96;48.31
55550;BME280;41397;49.972;18.944;2023-03-31T08:24:31;100862.27;;;20.07;47.74
55550;BME280;41397;49.972;18.944;2023-03-31T08:27:34;100846.61;;;20.14;47.45
55550;BME280;41397;49.972;18.944;2023-03-31T08:30:37;100841.44;;;20.11;47.17
55550;BME280;41397;49.972;18.944;2023-03-31T08:33:39;100829.04;;;19.99;47.04
55550;BME280;41397;49.972;18.944;2023-03-31T08:36:40;100825.02;;;20.02;47.79
55550;BME280;41397;49.972;18.944;2023-03-31T08:39:43;100829.61;;;19.94;47.93
55550;BME280;41397;49.972;18.944;2023-03-31T08:42:46;100823.41;;;20.07;48.94
55550;BME280;41397;49.972;18.944;2023-03-31T08:45:49;100817.41;;;20.18;47.72
55550;BME280;41397;49.972;18.944;2023-03-31T08:48:53;100817.91;;;20.22;47.47
55550;BME280;41397;49.972;18.944;2023-03-31T08:52:03;100814.68;;;20.33;47.15
55550;BME280;41397;49.972;18.944;2023-03-31T08:55:12;100809.04;;;20.42;46.88
55550;BME280;41397;49.972;18.944;2023-03-31T09:01:49;100813.53;;;20.43;47.24
55550;BME280;41397;49.972;18.944;2023-03-31T09:08:29;100805.12;;;20.51;47.08
55550;BME280;41397;49.972;18.944;2023-03-31T09:11:43;100796.16;;;20.64;46.87
55550;BME280;41397;49.972;18.944;2023-03-31T09:14:56;100786.27;;;20.76;46.15
55550;BME280;41397;49.972;18.944;2023-03-31T09:21:25;100778.11;;;20.89;45.95
55550;BME280;41397;49.972;18.944;2023-03-31T09:24:37;100774.20;;;20.98;46.50
55550;BME280;41397;49.972;18.944;2023-03-31T09:27:42;100771.59;;;21.12;45.88
55550;BME280;41397;49.972;18.944;2023-03-31T09:30:46;100760.92;;;21.15;44.95
55550;BME280;41397;49.972;18.944;2023-03-31T09:33:56;100759.28;;;21.21;44.87
55550;BME280;41397;49.972;18.944;2023-03-31T09:37:00;100737.18;;;21.34;44.83
55550;BME280;41397;49.972;18.944;2023-03-31T09:40:04;100743.15;;;21.31;44.54
55550;BME280;41397;49.972;18.944;2023-03-31T09:46:29;100738.44;;;21.32;44.75
55550;BME280;41397;49.972;18.944;2023-03-31T09:49:34;100733.80;;;21.39;45.33
55550;BME280;41397;49.972;18.944;2023-03-31T09:52:43;100739.19;;;21.40;44.83
55550;BME280;41397;49.972;18.944;2023-03-31T09:55:51;100726.91;;;21.35;44.50
55550;BME280;41397;49.972;18.944;2023-03-31T09:59:01;100724.30;;;21.33;44.08
55550;BME280;41397;49.972;18.944;2023-03-31T10:05:26;100715.02;;;21.04;45.34
55550;BME280;41397;49.972;18.944;2023-03-31T10:08:33;100716.73;;;21.05;44.84
55550;BME280;41397;49.972;18.944;2023-03-31T10:11:38;100711.38;;;21.04;44.99
55550;BME280;41397;49.972;18.944;2023-03-31T10:14:49;100717.59;;;21.06;45.01
55550;BME280;41397;49.972;18.944;2023-03-31T10:17:51;100712.14;;;20.98;45.21
55550;BME280;41397;49.972;18.944;2023-03-31T10:20:57;100710.15;;;20.92;45.42
55550;BME280;41397;49.972;18.944;2023-03-31T10:23:59;100698.87;;;20.78;45.67
55550;BME280;41397;49.972;18.944;2023-03-31T10:27:05;100698.52;;;20.67;45.91
55550;BME280;41397;49.972;18.944;2023-03-31T10:30:17;100690.18;;;20.67;46.40
55550;BME280;41397;49.972;18.944;2023-03-31T10:33:23;100692.09;;;20.66;46.03
55550;BME280;41397;49.972;18.944;2023-03-31T10:36:28;100687.86;;;20.70;45.92
55550;BME280;41397;49.972;18.944;2023-03-31T10:39:31;100683.30;;;20.63;46.33
55550;BME280;41397;49.972;18.944;2023-03-31T10:42:33;100686.26;;;20.61;46.21
55550;BME280;41397;49.972;18.944;2023-03-31T10:45:54;100680.41;;;20.56;46.12
55550;BME280;41397;49.972;18.944;2023-03-31T10:48:51;100670.45;;;20.61;46.19
55550;BME280;41397;49.972;18.944;2023-03-31T10:51:55;100675.61;;;20.65;46.89
55550;BME280;41397;49.972;18.944;2023-03-31T10:54:59;100667.56;;;20.70;46.90
55550;BME280;41397;49.972;18.944;2023-03-31T11:01:24;100659.38;;;20.83;46.62
55550;BME280;41397;49.972;18.944;2023-03-31T11:14:38;100637.48;;;20.95;45.26
55550;BME280;41397;49.972;18.944;2023-03-31T11:17:50;100635.77;;;20.94;45.55
55550;BME280;41397;49.972;18.944;2023-03-31T11:27:30;100625.04;;;20.91;46.03
55550;BME280;41397;49.972;18.944;2023-03-31T11:30:45;100619.37;;;20.99;44.83
55550;BME280;41397;49.972;18.944;2023-03-31T11:37:10;100603.72;;;21.19;45.24
55550;BME280;41397;49.972;18.944;2023-03-31T11:43:42;100591.82;;;21.25;43.39
55550;BME280;41397;49.972;18.944;2023-03-31T11:46:56;100593.34;;;21.28;43.55
55550;BME280;41397;49.972;18.944;2023-03-31T11:49:58;100583.86;;;21.44;43.89
55550;BME280;41397;49.972;18.944;2023-03-31T11:53:26;100574.09;;;21.55;43.70
55550;BME280;41397;49.972;18.944;2023-03-31T11:56:11;100565.56;;;21.56;43.04
55550;BME280;41397;49.972;18.944;2023-03-31T11:59:15;100557.46;;;21.61;42.80
55550;BME280;41397;49.972;18.944;2023-03-31T12:02:31;100550.41;;;21.65;41.71
55550;BME280;41397;49.972;18.944;2023-03-31T12:05:31;100548.73;;;21.71;41.81
55550;BME280;41397;49.972;18.944;2023-03-31T12:12:00;100537.77;;;21.63;41.45
55550;BME280;41397;49.972;18.944;2023-03-31T12:18:19;100524.32;;;21.66;42.23
55550;BME280;41397;49.972;18.944;2023-03-31T12:21:24;100531.34;;;21.62;41.87
55550;BME280;41397;49.972;18.944;2023-03-31T12:24:27;100525.94;;;21.54;41.44
55550;BME280;41397;49.972;18.944;2023-03-31T12:27:39;100518.20;;;21.49;41.80
55550;BME280;41397;49.972;18.944;2023-03-31T12:30:51;100509.15;;;21.41;42.10
55550;BME280;41397;49.972;18.944;2023-03-31T12:33:56;100507.22;;;21.41;42.75
55550;BME280;41397;49.972;18.944;2023-03-31T12:37:12;100499.66;;;21.35;42.44
55550;BME280;41397;49.972;18.944;2023-03-31T12:47:31;100515.50;;;21.06;44.93
55550;BME280;41397;49.972;18.944;2023-03-31T12:50:08;100497.85;;;20.93;48.59
55550;BME280;41397;49.972;18.944;2023-03-31T13:09:39;100487.67;;;20.21;45.96
55550;BME280;41397;49.972;18.944;2023-03-31T13:16:19;100487.11;;;20.10;46.31
55550;BME280;41397;49.972;18.944;2023-03-31T13:19:29;100480.25;;;20.06;45.77
55550;BME280;41397;49.972;18.944;2023-03-31T13:22:36;100475.48;;;20.00;45.96
55550;BME280;41397;49.972;18.944;2023-03-31T13:35:25;100462.33;;;19.72;46.18
55550;BME280;41397;49.972;18.944;2023-03-31T13:38:46;100457.13;;;19.55;47.17
55550;BME280;41397;49.972;18.944;2023-03-31T13:45:15;100450.53;;;19.26;48.39
55550;BME280;41397;49.972;18.944;2023-03-31T14:01:41;100405.21;;;18.89;50.16
55550;BME280;41397;49.972;18.944;2023-03-31T14:07:49;100397.75;;;18.75;50.66
55550;BME280;41397;49.972;18.944;2023-03-31T14:14:17;100378.41;;;18.67;48.55
55550;BME280;41397;49.972;18.944;2023-03-31T14:17:22;100380.67;;;18.63;49.56
55550;BME280;41397;49.972;18.944;2023-03-31T14:20:37;100369.98;;;18.60;49.22
55550;BME280;41397;49.972;18.944;2023-03-31T14:27:25;100363.49;;;18.53;49.83
55550;BME280;41397;49.972;18.944;2023-03-31T14:30:24;100345.98;;;18.52;50.17
55550;BME280;41397;49.972;18.944;2023-03-31T14:33:36;100344.27;;;18.51;50.01
55550;BME280;41397;49.972;18.944;2023-03-31T14:36:47;100337.20;;;18.49;50.59
55550;BME280;41397;49.972;18.944;2023-03-31T14:39:54;100326.98;;;18.49;50.03
55550;BME280;41397;49.972;18.944;2023-03-31T14:42:57;100321.52;;;18.41;49.81
55550;BME280;41397;49.972;18.944;2023-03-31T14:46:03;100317.06;;;18.55;53.38
55550;BME280;41397;49.972;18.944;2023-03-31T14:52:23;100315.01;;;19.01;53.92
55550;BME280;41397;49.972;18.944;2023-03-31T14:55:28;100298.66;;;19.21;53.09
55550;BME280;41397;49.972;18.944;2023-03-31T14:58:37;100287.73;;;19.35;50.22
55550;BME280;41397;49.972;18.944;2023-03-31T15:01:41;100285.42;;;19.38;48.65
55550;BME280;41397;49.972;18.944;2023-03-31T15:04:43;100291.36;;;19.35;47.94
55550;BME280;41397;49.972;18.944;2023-03-31T15:07:48;100297.02;;;19.27;48.70
55550;BME280;41397;49.972;18.944;2023-03-31T15:10:52;100286.44;;;19.16;48.56
55550;BME280;41397;49.972;18.944;2023-03-31T15:13:56;100289.42;;;18.99;48.62
55550;BME280;41397;49.972;18.944;2023-03-31T15:16:58;100281.77;;;18.87;49.18
55550;BME280;41397;49.972;18.944;2023-03-31T15:20:01;100272.50;;;18.79;49.35
55550;BME280;41397;49.972;18.944;2023-03-31T15:26:31;100255.88;;;18.64;49.36
55550;BME280;41397;49.972;18.944;2023-03-31T15:29:40;100257.11;;;18.62;49.50
55550;BME280;41397;49.972;18.944;2023-03-31T15:32:43;100251.28;;;18.57;49.73
55550;BME280;41397;49.972;18.944;2023-03-31T15:35:45;100233.63;;;18.58;49.37
55550;BME280;41397;49.972;18.944;2023-03-31T15:38:54;100223.59;;;18.57;49.84
55550;BME280;41397;49.972;18.944;2023-03-31T15:41:59;100226.56;;;18.55;49.36
55550;BME280;41397;49.972;18.944;2023-03-31T15:51:36;100208.22;;;18.54;49.48
55550;BME280;41397;49.972;18.944;2023-03-31T15:54:41;100196.96;;;18.56;49.88
55550;BME280;41397;49.972;18.944;2023-03-31T15:57:43;100187.41;;;18.58;49.22
55550;BME280;41397;49.972;18.944;2023-03-31T16:00:50;100172.50;;;18.59;49.34
55550;BME280;41397;49.972;18.944;2023-03-31T16:03:53;100183.19;;;18.62;48.95
55550;BME280;41397;49.972;18.944;2023-03-31T16:07:02;100177.58;;;18.56;48.96
55550;BME280;41397;49.972;18.944;2023-03-31T16:10:17;100175.66;;;18.56;49.07
55550;BME280;41397;49.972;18.944;2023-03-31T16:13:22;100175.20;;;18.53;49.46
55550;BME280;41397;49.972;18.944;2023-03-31T16:16:26;100173.67;;;18.50;49.92
55550;BME280;41397;49.972;18.944;2023-03-31T16:22:59;100170.50;;;18.38;49.85
55550;BME280;41397;49.972;18.944;2023-03-31T16:26:01;100166.42;;;18.34;50.27
55550;BME280;41397;49.972;18.944;2023-03-31T16:29:04;100166.13;;;18.29;50.01
55550;BME280;41397;49.972;18.944;2023-03-31T16:32:12;100154.20;;;18.29;50.41
55550;BME280;41397;49.972;18.944;2023-03-31T16:35:14;100155.63;;;18.25;49.89
55550;BME280;41397;49.972;18.944;2023-03-31T16:38:16;100147.41;;;18.16;49.85
55550;BME280;41397;49.972;18.944;2023-03-31T16:42:30;100141.34;;;18.06;50.03
55550;BME280;41397;49.972;18.944;2023-03-31T16:45:32;100139.30;;;18.00;49.82
55550;BME280;41397;49.972;18.944;2023-03-31T16:48:33;100137.59;;;17.99;50.22
55550;BME280;41397;49.972;18.944;2023-03-31T16:51:38;100140.91;;;17.94;50.28
55550;BME280;41397;49.972;18.944;2023-03-31T16:54:40;100134.36;;;17.95;50.55
55550;BME280;41397;49.972;18.944;2023-03-31T16:57:42;100125.17;;;17.95;50.40
55550;BME280;41397;49.972;18.944;2023-03-31T17:00:43;100124.15;;;17.96;50.56
55550;BME280;41397;49.972;18.944;2023-03-31T17:03:46;100124.31;;;17.94;50.70
55550;BME280;41397;49.972;18.944;2023-03-31T17:06:48;100107.55;;;17.96;50.45
55550;BME280;41397;49.972;18.944;2023-03-31T17:09:49;100107.08;;;17.92;50.54
55550;BME280;41397;49.972;18.944;2023-03-31T17:12:51;100100.02;;;17.90;50.84
55550;BME280;41397;49.972;18.944;2023-03-31T17:15:54;100105.90;;;17.87;50.85
55550;BME280;41397;49.972;18.944;2023-03-31T17:18:56;100086.29;;;17.82;50.56
55550;BME280;41397;49.972;18.944;2023-03-31T17:21:57;100090.42;;;17.78;50.97
55550;BME280;41397;49.972;18.944;2023-03-31T17:25:04;100087.75;;;17.69;50.89
55550;BME280;41397;49.972;18.944;2023-03-31T17:28:08;100085.27;;;17.60;51.06
55550;BME280;41397;49.972;18.944;2023-03-31T17:31:16;100074.39;;;17.58;50.98
55550;BME280;41397;49.972;18.944;2023-03-31T17:37:48;100077.41;;;17.48;51.32
55550;BME280;41397;49.972;18.944;2023-03-31T17:41:03;100071.88;;;17.48;51.58
55550;BME280;41397;49.972;18.944;2023-03-31T17:44:05;100073.80;;;17.48;51.79
55550;BME280;41397;49.972;18.944;2023-03-31T17:47:13;100085.06;;;17.46;51.73
55550;BME280;41397;49.972;18.944;2023-03-31T17:50:47;100088.55;;;17.40;52.22
55550;BME280;41397;49.972;18.944;2023-03-31T17:54:20;100082.36;;;17.38;52.26
55550;BME280;41397;49.972;18.944;2023-03-31T17:57:37;100076.03;;;17.29;52.66
55550;BME280;41397;49.972;18.944;2023-03-31T18:00:40;100083.09;;;17.32;52.99
55550;BME280;41397;49.972;18.944;2023-03-31T18:07:14;100082.13;;;17.25;53.34
55550;BME280;41397;49.972;18.944;2023-03-31T18:14:16;100095.45;;;17.21;53.71
55550;BME280;41397;49.972;18.944;2023-03-31T18:17:49;100094.96;;;17.18;53.64
55550;BME280;41397;49.972;18.944;2023-03-31T18:21:12;100098.96;;;17.15;53.60
55550;BME280;41397;49.972;18.944;2023-03-31T18:27:55;100097.05;;;17.16;53.56
55550;BME280;41397;49.972;18.944;2023-03-31T18:34:59;100079.62;;;17.15;53.63
55550;BME280;41397;49.972;18.944;2023-03-31T18:41:51;100093.13;;;17.10;53.99
55550;BME280;41397;49.972;18.944;2023-03-31T19:09:36;100088.30;;;16.89;54.46
55550;BME280;41397;49.972;18.944;2023-03-31T19:20:13;100091.43;;;16.86;54.79
55550;BME280;41397;49.972;18.944;2023-03-31T19:26:58;100088.52;;;16.79;55.39
55550;BME280;41397;49.972;18.944;2023-03-31T19:29:59;100101.11;;;16.82;55.33
55550;BME280;41397;49.972;18.944;2023-03-31T20:28:33;100118.47;;;15.40;59.51
55550;BME280;41397;49.972;18.944;2023-03-31T20:35:38;100118.82;;;15.28;59.08
55550;BME280;41397;49.972;18.944;2023-03-31T20:39:09;100121.75;;;15.27;58.87
55550;BME280;41397;49.972;18.944;2023-03-31T20:42:15;100127.25;;;15.27;58.51
55550;BME280;41397;49.972;18.944;2023-03-31T20:45:16;100124.84;;;15.24;58.25
55550;BME280;41397;49.972;18.944;2023-03-31T20:48:18;100131.55;;;15.21;58.44
55550;BME280;41397;49.972;18.944;2023-03-31T20:51:21;100140.66;;;15.22;58.25
55550;BME280;41397;49.972;18.944;2023-03-31T20:54:24;100149.47;;;15.17;57.83
55550;BME280;41397;49.972;18.944;2023-03-31T20:57:27;100152.38;;;15.16;57.59
55550;BME280;41397;49.972;18.944;2023-03-31T21:00:28;100139.81;;;15.13;57.74
55550;BME280;41397;49.972;18.944;2023-03-31T21:03:31;100128.80;;;15.13;57.44
55550;BME280;41397;49.972;18.944;2023-03-31T21:06:42;100137.41;;;15.10;57.50
55550;BME280;41397;49.972;18.944;2023-03-31T21:09:45;100142.55;;;15.05;57.40
55550;BME280;41397;49.972;18.944;2023-03-31T21:12:46;100141.87;;;15.03;57.36
55550;BME280;41397;49.972;18.944;2023-03-31T21:15:48;100140.16;;;15.02;57.06
55550;BME280;41397;49.972;18.944;2023-03-31T21:18:55;100138.80;;;15.06;56.82